createdAt,value
2022-10-19T00:01:28.854Z,101603.72
2022-10-19T00:06:35.275Z,101615.41
2022-10-19T00:11:40.763Z,101614.69
2022-10-19T00:16:43.018Z,101608.53
2022-10-19T00:21:45.291Z,101609.38
2022-10-19T00:26:46.838Z,101604.31
2022-10-19T00:31:50.246Z,101599.34
2022-10-19T00:36:51.914Z,101593.44
2022-10-19T00:41:53.359Z,101596.97
2022-10-19T00:46:59.170Z,101594.16
2022-10-19T00:52:07.932Z,101595.97
2022-10-19T00:57:10.477Z,101600.91
2022-10-19T01:02:12.306Z,101590.38
2022-10-19T01:07:13.853Z,101590.06
2022-10-19T01:12:30.788Z,101584.00
2022-10-19T01:18:15.531Z,101580.53
2022-10-19T01:23:19.894Z,101585.94
2022-10-19T01:28:45.052Z,101575.09
2022-10-19T01:39:22.606Z,101575.53
2022-10-19T01:44:44.586Z,101577.09
2022-10-19T01:49:56.893Z,101568.56
2022-10-19T01:55:01.898Z,101566.38
2022-10-19T02:00:06.081Z,101562.03
2022-10-19T02:05:09.105Z,101555.28
2022-10-19T02:10:10.941Z,101556.38
2022-10-19T02:15:17.129Z,101560.00
2022-10-19T02:20:20.089Z,101559.19
2022-10-19T02:25:23.001Z,101554.59
2022-10-19T02:30:24.694Z,101551.94
2022-10-19T02:35:26.411Z,101552.78
2022-10-19T02:40:33.054Z,101550.25
2022-10-19T02:45:43.258Z,101556.78
2022-10-19T02:50:45.602Z,101550.38
2022-10-19T02:55:48.950Z,101551.22
2022-10-19T03:00:50.389Z,101553.91
2022-10-19T03:05:51.834Z,101548.94
2022-10-19T03:10:53.298Z,101540.25
2022-10-19T03:15:54.694Z,101541.81
2022-10-19T03:21:10.718Z,101530.25
2022-10-19T03:26:15.993Z,101530.63
2022-10-19T03:31:17.445Z,101529.41
2022-10-19T03:36:28.454Z,101528.69
2022-10-19T03:41:33.275Z,101523.59
2022-10-19T03:46:35.620Z,101526.16
2022-10-19T03:51:37.214Z,101529.63
2022-10-19T03:56:38.754Z,101526.97
2022-10-19T04:01:43.219Z,101532.16
2022-10-19T04:06:47.607Z,101548.59
2022-10-19T04:11:49.638Z,101552.56
2022-10-19T04:16:51.160Z,101548.22
2022-10-19T04:21:52.562Z,101543.50
2022-10-19T04:26:55.827Z,101543.94
2022-10-19T04:31:58.122Z,101533.22
2022-10-19T04:36:59.690Z,101537.22
2022-10-19T04:42:01.163Z,101528.50
2022-10-19T04:47:02.738Z,101529.13
2022-10-19T04:52:04.293Z,101536.97
2022-10-19T04:57:05.726Z,101533.59
2022-10-19T05:02:07.296Z,101529.22
2022-10-19T05:07:08.765Z,101523.44
2022-10-19T05:12:10.190Z,101523.19
2022-10-19T05:17:11.611Z,101522.34
2022-10-19T05:22:13.023Z,101514.59
2022-10-19T05:27:14.655Z,101524.16
2022-10-19T05:32:16.087Z,101519.94
2022-10-19T05:37:17.497Z,101520.91
2022-10-19T05:42:18.957Z,101523.69
2022-10-19T05:47:20.405Z,101518.84
2022-10-19T05:52:21.921Z,101515.69
2022-10-19T05:57:23.373Z,101512.81
2022-10-19T06:02:24.833Z,101508.81
2022-10-19T06:07:26.279Z,101511.34
2022-10-19T06:12:27.689Z,101510.13
2022-10-19T06:17:29.180Z,101510.22
2022-10-19T06:22:30.651Z,101516.41
2022-10-19T06:27:32.528Z,101509.03
2022-10-19T06:32:34.221Z,101518.81
2022-10-19T06:37:35.780Z,101523.16
2022-10-19T06:42:37.487Z,101522.22
2022-10-19T06:47:39.129Z,101527.63
2022-10-19T06:52:40.842Z,101528.78
2022-10-19T06:57:42.297Z,101537.72
2022-10-19T07:02:44.217Z,101532.47
2022-10-19T07:07:45.738Z,101538.19
2022-10-19T07:12:47.208Z,101542.94
2022-10-19T07:17:48.695Z,101548.22
2022-10-19T07:22:50.089Z,101548.38
2022-10-19T07:27:51.657Z,101548.88
2022-10-19T07:32:53.060Z,101549.56
2022-10-19T07:37:54.507Z,101556.09
2022-10-19T07:42:56.077Z,101551.38
2022-10-19T07:47:58.537Z,101551.16
2022-10-19T07:53:00.038Z,101544.03
2022-10-19T07:58:01.446Z,101545.44
2022-10-19T08:08:24.653Z,101541.53
2022-10-19T08:13:26.098Z,101535.97
2022-10-19T08:18:27.557Z,101545.59
2022-10-19T08:23:29.253Z,101529.94
2022-10-19T08:28:30.812Z,101535.25
2022-10-19T08:33:32.229Z,101528.63
2022-10-19T08:38:35.453Z,101534.44
2022-10-19T08:43:54.465Z,101528.03
2022-10-19T08:48:56.463Z,101543.94
2022-10-19T08:54:02.439Z,101524.03
2022-10-19T08:59:40.770Z,101523.31
2022-10-19T09:04:48.368Z,101520.09
2022-10-19T09:10:04.855Z,101518.50
2022-10-19T09:15:11.305Z,101512.16
2022-10-19T09:20:19.614Z,101507.75
2022-10-19T09:25:23.254Z,101509.69
2022-10-19T09:30:24.719Z,101485.56
2022-10-19T09:35:35.981Z,101490.13
2022-10-19T09:40:37.431Z,101489.19
2022-10-19T09:45:54.046Z,101486.31
2022-10-19T09:50:58.857Z,101476.41
2022-10-19T09:56:05.678Z,101476.94
2022-10-19T10:01:07.113Z,101486.94
2022-10-19T10:06:13.805Z,101487.78
2022-10-19T10:11:24.017Z,101484.75
2022-10-19T10:16:29.714Z,101480.88
2022-10-19T10:21:50.022Z,101482.63
2022-10-19T10:27:00.529Z,101484.41
2022-10-19T10:32:20.232Z,101481.84
2022-10-19T10:37:28.117Z,101478.09
2022-10-19T10:42:40.905Z,101477.00
2022-10-19T10:47:43.553Z,101470.66
2022-10-19T10:53:04.488Z,101463.91
2022-10-19T10:58:18.275Z,101451.34
2022-10-19T11:03:26.646Z,101443.84
2022-10-19T11:08:47.101Z,101445.91
2022-10-19T11:13:58.855Z,101442.44
2022-10-19T11:19:20.542Z,101430.75
2022-10-19T11:24:48.692Z,101413.50
2022-10-19T11:30:07.181Z,101406.75
2022-10-19T11:35:30.788Z,101398.88
2022-10-19T11:40:49.611Z,101383.09
2022-10-19T11:46:23.536Z,101380.63
2022-10-19T11:51:40.540Z,101377.13
2022-10-19T11:57:11.406Z,101362.84
2022-10-19T12:02:24.709Z,101348.38
2022-10-19T12:07:39.648Z,101333.38
2022-10-19T12:12:47.897Z,101319.94
2022-10-19T12:17:52.557Z,101324.59
2022-10-19T12:22:54.418Z,101320.81
2022-10-19T12:27:57.127Z,101311.31
2022-10-19T12:33:03.392Z,101299.97
2022-10-19T12:38:16.331Z,101290.56
2022-10-19T12:43:31.057Z,101286.59
2022-10-19T12:48:32.549Z,101277.41
2022-10-19T12:53:49.057Z,101270.41
2022-10-19T12:58:57.538Z,101259.31
2022-10-19T13:04:10.454Z,101254.44
2022-10-19T13:09:39.891Z,101244.84
2022-10-19T13:14:41.348Z,101231.69
2022-10-19T13:19:42.908Z,101220.59
2022-10-19T13:25:16.832Z,101216.53
2022-10-19T13:30:36.649Z,101208.13
2022-10-19T13:35:39.049Z,101199.00
2022-10-19T13:40:49.688Z,101191.00
2022-10-19T13:46:00.271Z,101192.16
2022-10-19T13:51:19.414Z,101185.66
2022-10-19T13:56:31.925Z,101185.41
2022-10-19T14:01:47.396Z,101186.09
2022-10-19T14:06:53.243Z,101178.66
2022-10-19T14:12:04.542Z,101186.38
2022-10-19T14:17:21.633Z,101183.16
2022-10-19T14:22:27.339Z,101181.88
2022-10-19T14:27:30.621Z,101177.56
2022-10-19T14:32:34.121Z,101170.56
2022-10-19T14:37:36.916Z,101164.78
2022-10-19T14:42:45.192Z,101160.16
2022-10-19T14:47:54.025Z,101154.97
2022-10-19T14:53:01.437Z,101140.81
2022-10-19T14:58:09.513Z,101143.75
2022-10-19T15:03:17.945Z,101153.75
2022-10-19T15:08:30.597Z,101156.00
2022-10-19T15:13:40.345Z,101162.44
2022-10-19T15:18:49.489Z,101154.22
2022-10-19T15:23:52.626Z,101163.31
2022-10-19T15:29:06.731Z,101155.63
2022-10-19T15:34:23.663Z,101149.06
2022-10-19T15:39:38.759Z,101152.84
2022-10-19T15:44:44.124Z,101148.22
2022-10-19T15:49:45.595Z,101149.19
2022-10-19T15:54:48.985Z,101152.72
2022-10-19T15:59:50.940Z,101151.59
2022-10-19T16:04:53.948Z,101154.13
2022-10-19T16:09:55.542Z,101132.41
2022-10-19T16:14:57.117Z,101138.16
2022-10-19T16:19:59.015Z,101138.84
2022-10-19T16:25:02.405Z,101121.19
2022-10-19T16:30:04.824Z,101120.50
2022-10-19T16:35:07.451Z,101117.97
2022-10-19T16:40:09.298Z,101117.69
2022-10-19T16:45:11.175Z,101111.25
2022-10-19T16:50:12.663Z,101106.78
2022-10-19T16:55:14.433Z,101104.13
2022-10-19T17:00:16.003Z,101108.31
2022-10-19T17:05:17.552Z,101110.69
2022-10-19T17:10:19.129Z,101114.34
2022-10-19T17:20:42.081Z,101095.72
2022-10-19T17:25:48.218Z,101090.25
2022-10-19T17:30:49.690Z,101088.88
2022-10-19T17:35:51.266Z,101087.16
2022-10-19T17:40:52.910Z,101092.22
2022-10-19T17:46:02.023Z,101079.50
2022-10-19T17:51:06.882Z,101086.47
2022-10-19T17:56:08.620Z,101084.25
2022-10-19T18:01:11.233Z,101090.50
2022-10-19T18:06:14.898Z,101103.41
2022-10-19T18:11:17.582Z,101101.66
2022-10-19T18:16:22.659Z,101099.97
2022-10-19T18:21:27.834Z,101098.03
2022-10-19T18:26:32.467Z,101089.06
2022-10-19T18:31:34.164Z,101084.34
2022-10-19T18:36:35.730Z,101075.75
2022-10-19T18:41:37.456Z,101067.69
2022-10-19T18:46:40.359Z,101057.84
2022-10-19T18:51:42.085Z,101052.13
2022-10-19T18:56:43.527Z,101048.50
2022-10-19T19:01:45.156Z,101049.59
2022-10-19T19:06:46.855Z,101052.69
2022-10-19T19:11:48.386Z,101049.75
2022-10-19T19:16:50.276Z,101050.16
2022-10-19T19:21:51.778Z,101057.28
2022-10-19T19:26:54.098Z,101049.88
2022-10-19T19:31:55.648Z,101031.97
2022-10-19T19:36:57.373Z,101027.22
2022-10-19T19:41:58.949Z,101029.75
2022-10-19T19:47:01.804Z,101029.75
2022-10-19T19:52:03.498Z,101020.66
2022-10-19T19:57:04.965Z,101012.38
2022-10-19T20:02:07.011Z,101019.69
2022-10-19T20:07:08.633Z,101003.19
2022-10-19T20:12:10.163Z,100994.50
2022-10-19T20:17:11.608Z,100986.66
2022-10-19T20:22:13.055Z,100993.91
2022-10-19T20:27:14.517Z,100998.50
2022-10-19T20:32:16.001Z,101005.03
2022-10-19T20:37:17.885Z,100988.53
2022-10-19T20:42:19.341Z,100986.28
2022-10-19T20:47:20.894Z,100981.28
2022-10-19T20:52:22.433Z,100973.44
2022-10-19T20:57:23.953Z,100965.47
2022-10-19T21:02:25.430Z,100967.00
2022-10-19T21:07:27.007Z,100959.44
2022-10-19T21:12:28.657Z,100961.97
2022-10-19T21:22:34.568Z,100963.50
2022-10-19T21:27:39.502Z,100952.06
2022-10-19T21:32:40.965Z,100950.38
2022-10-19T21:37:45.263Z,100938.22
2022-10-19T21:42:46.787Z,100935.69
2022-10-19T21:47:48.231Z,100937.09
2022-10-19T21:52:49.814Z,100926.22
2022-10-19T21:57:51.486Z,100928.19
2022-10-19T22:02:52.914Z,100930.41
2022-10-19T22:07:54.410Z,100931.41
2022-10-19T22:12:56.579Z,100926.22
2022-10-19T22:17:58.133Z,100919.22
2022-10-19T22:22:59.533Z,100911.94
2022-10-19T22:28:01.248Z,100909.84
2022-10-19T22:33:02.825Z,100903.72
2022-10-19T22:38:04.309Z,100896.00
2022-10-19T22:43:06.808Z,100889.88
2022-10-19T22:48:08.666Z,100877.84
2022-10-19T22:53:11.121Z,100867.66
2022-10-19T22:58:12.651Z,100858.28
2022-10-19T23:03:14.333Z,100845.56
2022-10-19T23:08:15.858Z,100840.41
2022-10-19T23:13:17.438Z,100829.91
2022-10-19T23:18:19.620Z,100832.00
2022-10-19T23:23:21.395Z,100824.59
2022-10-19T23:28:22.914Z,100825.81
2022-10-19T23:33:25.826Z,100832.91
2022-10-19T23:38:27.254Z,100816.72
2022-10-19T23:43:29.384Z,100824.84
2022-10-19T23:48:31.454Z,100813.91
2022-10-19T23:53:38.504Z,100810.94
2022-10-19T23:58:42.625Z,100812.59
